TAF

Letisková predpoveď TAF

Informácie o správe TAF

26.05.2020 - 08:00 UTC

TAF LZSL 260800Z 2609/2618 36010KT 9999 FEW030 BKN050
    TEMPO 2609/2615 9999 SHRA SCT030TCU BKN038
    PROB40 TEMPO 2612/2614 36015G25KT 6000 TSRA SCT025CB BKN033=
TAF LZPP 260800Z 2609/2618 35010KT 9999 SCT035 BKN060
    TEMPO 2609/2615 9999 SHRA SCT033TCU BKN040
    TEMPO 2610/2614 36015G30KT 4500 TSRA SCT025CB BKN035=
TAF LZZI 260800Z 2609/2618 02005KT 9999 SCT027 BKN050
    TEMPO 2609/2612 -RA FEW005 SCT020 BKN040
    TEMPO 2609/2616 03008KT 4500 SHRA SCT025CB BKN035
    PROB40 TEMPO 2609/2615 36015G25KT 4000 TSRA SCT020CB BKN035=

26.05.2020 - 02:00 UTC

TAF AMD LZZI 260542Z 2605/2612 04005KT 9999 SCT030 BKN055
    TEMPO 2605/2607 4000 RA SCT003 BKN020
    TEMPO 2608/2612 SHRA SCT025TCU BKN035=

26.05.2020 - 05:00 UTC

TAF LZSL 260500Z 2606/2615 36003KT CAVOK
    BECMG 2607/2609 01009KT
    TEMPO 2609/2615 9999 SHRA SCT030TCU BKN038
    PROB40 TEMPO 2612/2614 36015G25KT 6000 TSRA SCT025CB BKN033=
TAF LZPP 260500Z 2606/2615 35010KT CAVOK
    TEMPO 2608/2614 9999 SHRA SCT033TCU BKN040
    TEMPO 2610/2613 36015G30KT 5000 TSRA SCT025CB BKN035=
TAF LZZI 260500Z 2606/2615 02004KT 9999 SCT027 BKN038
    TEMPO 2607/2615 03008KT 6000 SHRA SCT025CB BKN035
    PROB40 TEMPO 2609/2615 36015G25KT 4000 TSRA SCT020CB BKN035=

26.05.2020 - 05:00 UTC

TAF LZIB 260500Z 2606/2706 34010KT 9999 FEW045
    TEMPO 2609/2616 35015G25KT -SHRA FEW025CB BKN040
    PROB40 TEMPO 2611/2614 TSRA SCT025CB BKN040
    BECMG 2613/2615 CAVOK=
TAF LZKZ 260500Z 2606/2706 01010KT 9999 FEW025 SCT060
    TEMPO 2608/2700 02015G25KT
    TEMPO 2612/2618 -SHRA SCT025CB BKN040=
TAF LZTT 260500Z 2606/2706 25005KT 9999 FEW025 SCT060
    PROB40 TEMPO 2606/2608 5000 -SHRA SCT020 BKN050
    BECMG 2606/2608 05005KT
    TEMPO 2612/2706 -SHRA FEW025CB BKN045
    PROB40 TEMPO 2613/2616 04015G25KT TSRA SCT025CB BKN040=

26.05.2020 - 02:00 UTC

TAF LZSL 260200Z 2603/2612 36008KT CAVOK
    TEMPO 2607/2612 9999 SCT045 BKN060=
TAF LZZI 260200Z 2603/2612 04005KT 9999 SCT030 BKN055
    TEMPO 2603/2607 -RA SCT003 BKN035
    TEMPO 2608/2612 SHRA SCT025TCU BKN035=

skok na menu ↑


skok na začiatok stránky ↑